Time;durP1;ratioP1;P1;durP2;ratioP2;P2;SDS_P1;SDS_P2;PMS_P1;PMS_P2;Temp;Humidity;BMP_temperature;BMP_pressure;BME280_temperature;BME280_humidity;BME280_pressure;Samples;Min_cycle;Max_cycle;Signal;HPM_P1;HPM_P2
2021/04/19 00:01:59;;;;;;;8.32;3.20;;;;;;;;;;5069047;28;20572;-50
2021/04/19 00:04:26;;;;;;;3.80;2.53;;;;;;;;;;5066612;28;20480;-49
2021/04/19 00:06:52;;;;;;;5.85;2.80;;;;;;;;;;5067613;28;20067;-48
2021/04/19 00:09:19;;;;;;;7.95;3.00;;;;;;;;;;5070452;28;20052;-48
2021/04/19 00:11:45;;;;;;;10.23;3.97;;;;;;;;;;5063095;28;20115;-48
2021/04/19 00:14:11;;;;;;;5.38;2.70;;;;;;;;;;5062994;28;20044;-48
2021/04/19 00:16:38;;;;;;;8.25;3.20;;;;;;;;;;5068953;28;20509;-48
2021/04/19 00:19:04;;;;;;;14.05;3.40;;;;;;;;;;5066864;28;20047;-48
2021/04/19 00:21:31;;;;;;;6.15;2.53;;;;;;;;;;5065564;28;20775;-48
2021/04/19 00:23:57;;;;;;;10.48;2.70;;;;;;;;;;5068375;28;20044;-49
2021/04/19 00:26:23;;;;;;;9.63;2.95;;;;;;;;;;5064705;28;20052;-50
2021/04/19 00:28:50;;;;;;;9.45;3.22;;;;;;;;;;5061124;28;20606;-51
2021/04/19 00:31:16;;;;;;;8.45;3.20;;;;;;;;;;5066111;28;20072;-50
2021/04/19 00:33:42;;;;;;;5.10;2.75;;;;;;;;;;5069834;28;20396;-47
2021/04/19 00:36:10;;;;;;;6.63;3.28;;;;;;;;;;5065434;28;20508;-49
2021/04/19 00:38:36;;;;;;;7.00;2.75;;;;;;;;;;5064638;28;20049;-50
2021/04/19 00:41:03;;;;;;;7.30;3.22;;;;;;;;;;5069967;28;20113;-49
2021/04/19 00:43:30;;;;;;;8.45;2.90;;;;;;;;;;5064654;28;20622;-49
2021/04/19 00:46:02;;;;;;;4.15;2.47;;;;;;;;;;5070908;28;20052;-47
2021/04/19 00:48:29;;;;;;;5.70;2.80;;;;;;;;;;5067658;28;20082;-47
2021/04/19 00:50:56;;;;;;;4.90;3.13;;;;;;;;;;5064710;28;20501;-50
2021/04/19 00:53:25;;;;;;;6.30;2.67;;;;;;;;;;5068763;28;20044;-47
2021/04/19 00:55:53;;;;;;;7.80;2.53;;;;;;;;;;5069394;28;20047;-48
2021/04/19 00:58:21;;;;;;;7.47;2.90;;;;;;;;;;5069194;28;20052;-51
2021/04/19 01:00:48;;;;;;;7.63;2.80;;;;;;;;;;5067798;28;20048;-48
2021/04/19 01:03:14;;;;;;;8.15;2.85;;;;;;;;;;5065393;28;20051;-48
2021/04/19 01:05:42;;;;;;;3.97;1.73;;;;;;;;;;5067253;28;20532;-47
2021/04/19 01:08:09;;;;;;;13.18;3.80;;;;;;;;;;5069850;28;20048;-47
2021/04/19 01:10:37;;;;;;;6.10;2.60;;;;;;;;;;5066475;28;20153;-48
2021/04/19 01:13:04;;;;;;;5.95;2.85;;;;;;;;;;5068503;28;20064;-47
2021/04/19 01:15:31;;;;;;;6.93;2.95;;;;;;;;;;5070843;28;20076;-47
2021/04/19 01:17:57;;;;;;;8.35;3.25;;;;;;;;;;5068639;28;20052;-49
2021/04/19 01:20:27;;;;;;;5.63;2.95;;;;;;;;;;5069460;28;20041;-49
2021/04/19 01:23:01;;;;;;;6.80;2.95;;;;;;;;;;5064847;28;20152;-51
2021/04/19 01:25:29;;;;;;;9.63;3.15;;;;;;;;;;5064713;28;20040;-47
2021/04/19 01:27:56;;;;;;;8.30;2.88;;;;;;;;;;5068327;28;20036;-49
2021/04/19 01:30:24;;;;;;;7.60;2.70;;;;;;;;;;5061296;28;20884;-49
2021/04/19 01:32:55;;;;;;;6.75;2.88;;;;;;;;;;5067002;28;20052;-48
2021/04/19 01:35:21;;;;;;;8.43;3.85;;;;;;;;;;5061958;28;20104;-53
2021/04/19 01:37:49;;;;;;;6.78;3.28;;;;;;;;;;5066516;28;20044;-48
2021/04/19 01:40:16;;;;;;;8.63;3.30;;;;;;;;;;5062647;28;20412;-48
2021/04/19 01:42:43;;;;;;;6.93;3.10;;;;;;;;;;5065553;28;20366;-50
2021/04/19 01:45:10;;;;;;;6.95;3.05;;;;;;;;;;5064523;28;20049;-47
2021/04/19 01:47:36;;;;;;;5.85;2.53;;;;;;;;;;5061632;28;20460;-49
2021/04/19 01:50:07;;;;;;;9.88;3.03;;;;;;;;;;5063170;28;20060;-49
2021/04/19 01:52:34;;;;;;;10.85;3.08;;;;;;;;;;5084966;28;20041;-49
2021/04/19 01:55:01;;;;;;;6.72;2.67;;;;;;;;;;5066190;28;20062;-47
2021/04/19 01:57:28;;;;;;;7.65;2.97;;;;;;;;;;5065546;28;20041;-48
2021/04/19 01:59:56;;;;;;;5.32;2.33;;;;;;;;;;5064414;28;20044;-48
2021/04/19 02:02:34;;;;;;;5.03;2.50;;;;;;;;;;5065572;28;20489;-49
2021/04/19 02:05:06;;;;;;;6.80;2.80;;;;;;;;;;5067257;28;20041;-49
2021/04/19 02:07:54;;;;;;;10.05;3.38;;;;;;;;;;5068396;28;20044;-48
2021/04/19 02:10:39;;;;;;;4.10;2.67;;;;;;;;;;5082867;28;20151;-47
2021/04/19 02:13:11;;;;;;;7.97;3.25;;;;;;;;;;5066686;28;20086;-49
2021/04/19 02:15:47;;;;;;;6.50;2.78;;;;;;;;;;5066762;28;20082;-49
2021/04/19 02:18:14;;;;;;;6.57;2.78;;;;;;;;;;5057339;28;20078;-49
2021/04/19 02:20:54;;;;;;;6.68;2.92;;;;;;;;;;5065111;28;20060;-47
2021/04/19 02:23:29;;;;;;;6.28;3.00;;;;;;;;;;5065750;28;20412;-48
2021/04/19 02:26:04;;;;;;;7.10;3.38;;;;;;;;;;5063203;28;20523;-47
2021/04/19 02:28:39;;;;;;;8.63;2.90;;;;;;;;;;5083094;28;20442;-47
2021/04/19 02:31:15;;;;;;;9.52;2.90;;;;;;;;;;5070289;28;20040;-48
2021/04/19 02:33:45;;;;;;;8.38;3.35;;;;;;;;;;5073614;28;20052;-49
2021/04/19 02:36:12;;;;;;;8.25;2.90;;;;;;;;;;5069433;28;20041;-48
2021/04/19 02:38:50;;;;;;;6.63;3.40;;;;;;;;;;5069755;28;20055;-49
2021/04/19 02:41:19;;;;;;;6.72;2.92;;;;;;;;;;5072132;28;20049;-47
2021/04/19 02:43:46;;;;;;;11.40;3.35;;;;;;;;;;5068553;28;20079;-48
2021/04/19 02:46:13;;;;;;;4.25;2.70;;;;;;;;;;5064972;28;20040;-47
2021/04/19 02:48:44;;;;;;;9.82;3.17;;;;;;;;;;5070965;28;20041;-50
2021/04/19 02:51:19;;;;;;;9.07;3.22;;;;;;;;;;5070152;28;20066;-47
2021/04/19 02:53:45;;;;;;;5.15;2.80;;;;;;;;;;5068970;28;20041;-48
2021/04/19 02:56:12;;;;;;;5.68;3.28;;;;;;;;;;5071798;28;20606;-47
2021/04/19 02:58:50;;;;;;;8.25;3.00;;;;;;;;;;5072737;28;20051;-47
2021/04/19 03:01:24;;;;;;;7.00;3.10;;;;;;;;;;5070183;28;20059;-48
2021/04/19 03:04:08;;;;;;;7.18;2.88;;;;;;;;;;5070467;28;20037;-48
2021/04/19 03:06:40;;;;;;;7.00;3.13;;;;;;;;;;5046373;28;20110;-46
2021/04/19 03:09:09;;;;;;;9.27;2.70;;;;;;;;;;5071768;28;20049;-49
2021/04/19 03:11:52;;;;;;;7.47;3.30;;;;;;;;;;5067196;28;20036;-49
2021/04/19 03:14:22;;;;;;;7.75;3.00;;;;;;;;;;5081524;28;20061;-47
2021/04/19 03:17:06;;;;;;;6.63;3.53;;;;;;;;;;5067706;28;20055;-47
2021/04/19 03:20:04;;;;;;;6.63;2.90;;;;;;;;;;5066704;28;20474;-48
2021/04/19 03:22:40;;;;;;;6.85;3.28;;;;;;;;;;5067894;28;20469;-49
2021/04/19 03:25:08;;;;;;;6.38;3.22;;;;;;;;;;5069491;28;20132;-48
2021/04/19 03:27:36;;;;;;;9.50;3.10;;;;;;;;;;5066521;28;20052;-48
2021/04/19 03:30:07;;;;;;;5.35;3.35;;;;;;;;;;5066620;28;20408;-47
2021/04/19 03:32:46;;;;;;;8.60;3.10;;;;;;;;;;5068982;28;20504;-47
2021/04/19 03:35:16;;;;;;;9.02;2.90;;;;;;;;;;5064695;28;20045;-50
2021/04/19 03:37:44;;;;;;;8.38;3.10;;;;;;;;;;5065918;28;20151;-48
2021/04/19 03:40:16;;;;;;;7.47;3.00;;;;;;;;;;5063405;28;20447;-47
2021/04/19 03:42:45;;;;;;;9.63;3.00;;;;;;;;;;5069218;28;20048;-48
2021/04/19 03:45:16;;;;;;;6.00;2.58;;;;;;;;;;5064853;28;20128;-48
2021/04/19 03:48:05;;;;;;;4.18;2.72;;;;;;;;;;5069920;28;20109;-49
2021/04/19 03:50:50;;;;;;;7.50;3.33;;;;;;;;;;5069694;28;20059;-47
2021/04/19 03:53:19;;;;;;;7.18;3.15;;;;;;;;;;5066198;28;20105;-47
2021/04/19 03:55:47;;;;;;;7.60;2.78;;;;;;;;;;5064915;28;20044;-47
2021/04/19 03:58:14;;;;;;;7.20;3.00;;;;;;;;;;5067074;28;20045;-47
2021/04/19 04:00:46;;;;;;;5.57;2.88;;;;;;;;;;5064746;28;20399;-50
2021/04/19 04:03:25;;;;;;;4.00;2.25;;;;;;;;;;5070161;28;20047;-47
2021/04/19 04:06:12;;;;;;;7.63;2.75;;;;;;;;;;5068529;28;20068;-49
2021/04/19 04:08:40;;;;;;;4.57;2.80;;;;;;;;;;5083594;28;20036;-47
2021/04/19 04:11:08;;;;;;;4.85;2.65;;;;;;;;;;5067685;28;20496;-48
2021/04/19 04:13:34;;;;;;;8.27;2.70;;;;;;;;;;5064327;28;20451;-47
2021/04/19 04:16:02;;;;;;;5.15;2.58;;;;;;;;;;5065206;28;20091;-47
2021/04/19 04:18:57;;;;;;;5.47;2.80;;;;;;;;;;5063163;28;20610;-49
2021/04/19 04:21:27;;;;;;;8.50;3.22;;;;;;;;;;5068337;28;20068;-49
2021/04/19 04:23:59;;;;;;;8.38;2.45;;;;;;;;;;5070621;28;20473;-47
2021/04/19 04:26:28;;;;;;;8.52;2.60;;;;;;;;;;5059955;28;20036;-48
2021/04/19 04:28:55;;;;;;;8.70;2.35;;;;;;;;;;5066923;28;21171;-47
2021/04/19 04:31:28;;;;;;;5.55;2.58;;;;;;;;;;5067504;28;20521;-50
2021/04/19 04:34:00;;;;;;;6.78;2.33;;;;;;;;;;5069883;28;20047;-47
2021/04/19 04:36:27;;;;;;;4.93;2.53;;;;;;;;;;5067765;28;20109;-49
2021/04/19 04:38:58;;;;;;;4.57;2.35;;;;;;;;;;5067342;28;20462;-47
2021/04/19 04:41:32;;;;;;;8.35;2.38;;;;;;;;;;5062955;28;20045;-47
2021/04/19 04:43:58;;;;;;;6.63;2.40;;;;;;;;;;5069345;28;20036;-47
2021/04/19 04:46:37;;;;;;;4.32;2.42;;;;;;;;;;5066008;28;20056;-48
2021/04/19 04:49:09;;;;;;;10.18;2.90;;;;;;;;;;5064120;28;20135;-47
2021/04/19 04:51:36;;;;;;;7.63;3.30;;;;;;;;;;5062124;28;20558;-49
2021/04/19 04:54:03;;;;;;;7.90;2.83;;;;;;;;;;5070575;28;20037;-48
2021/04/19 04:56:33;;;;;;;5.03;2.70;;;;;;;;;;5067457;28;20049;-50
2021/04/19 04:58:59;;;;;;;6.20;2.60;;;;;;;;;;5067651;28;20052;-47
2021/04/19 05:01:27;;;;;;;5.65;2.53;;;;;;;;;;5070490;28;20048;-48
2021/04/19 05:03:54;;;;;;;7.03;2.38;;;;;;;;;;5069274;28;20085;-49
2021/04/19 05:06:20;;;;;;;4.60;2.20;;;;;;;;;;5070174;28;20044;-48
2021/04/19 05:08:47;;;;;;;6.15;2.20;;;;;;;;;;5070720;28;20090;-47
2021/04/19 05:11:14;;;;;;;7.57;2.70;;;;;;;;;;5069638;28;20652;-48
2021/04/19 05:13:41;;;;;;;10.05;2.70;;;;;;;;;;5070171;28;20040;-47
2021/04/19 05:16:07;;;;;;;7.25;2.35;;;;;;;;;;5069603;28;20581;-48
2021/04/19 05:18:34;;;;;;;4.47;2.47;;;;;;;;;;5066703;28;20518;-49
2021/04/19 05:21:02;;;;;;;6.13;2.38;;;;;;;;;;5068099;28;20078;-49
2021/04/19 05:23:28;;;;;;;9.52;2.80;;;;;;;;;;5066363;28;20485;-47
2021/04/19 05:25:59;;;;;;;6.03;2.00;;;;;;;;;;5068885;28;20068;-48
2021/04/19 05:28:25;;;;;;;;;;;;;;;;;;5068967;28;20195;-51
2021/04/19 05:30:51;;;;;;;4.78;2.30;;;;;;;;;;5067810;28;19920;-47
2021/04/19 05:33:18;;;;;;;4.38;2.45;;;;;;;;;;5072712;28;20094;-48
2021/04/19 05:35:45;;;;;;;7.53;2.72;;;;;;;;;;5070315;28;20032;-50
2021/04/19 05:38:12;;;;;;;4.13;2.22;;;;;;;;;;5066524;28;20535;-48
2021/04/19 05:40:38;;;;;;;;;;;;;;;;;;5066171;28;20045;-50
2021/04/19 05:43:05;;;;;;;7.40;2.72;;;;;;;;;;5065334;28;20441;-47
2021/04/19 05:45:32;;;;;;;7.15;2.45;;;;;;;;;;5067935;28;20051;-47
2021/04/19 05:47:59;;;;;;;4.63;2.30;;;;;;;;;;5067167;28;20048;-47
2021/04/19 05:50:26;;;;;;;7.78;2.08;;;;;;;;;;5066632;28;20040;-48
2021/04/19 05:52:54;;;;;;;5.28;2.13;;;;;;;;;;5064868;28;20056;-47
2021/04/19 05:55:23;;;;;;;5.72;2.60;;;;;;;;;;5068542;28;20051;-51
2021/04/19 05:58:01;;;;;;;3.78;2.10;;;;;;;;;;5069407;28;20512;-51
2021/04/19 06:00:35;;;;;;;9.68;2.17;;;;;;;;;;5066599;28;20048;-50
2021/04/19 06:03:08;;;;;;;5.97;2.67;;;;;;;;;;5068162;28;20533;-48
2021/04/19 06:05:40;;;;;;;6.28;2.22;;;;;;;;;;5069084;28;20377;-47
2021/04/19 06:08:06;;;;;;;6.00;2.67;;;;;;;;;;5064181;28;20051;-47
2021/04/19 06:10:47;;;;;;;5.82;2.22;;;;;;;;;;5068386;28;20083;-48
2021/04/19 06:13:42;;;;;;;4.80;2.45;;;;;;;;;;5074508;28;20063;-52
2021/04/19 06:16:07;;;;;;;;;;;;;;;;;;5066836;28;20079;-48
2021/04/19 06:18:34;;;;;;;4.57;2.00;;;;;;;;;;5064269;28;20388;-49
2021/04/19 06:21:02;;;;;;;10.13;2.85;;;;;;;;;;5070303;28;20052;-49
2021/04/19 06:23:28;;;;;;;8.27;2.28;;;;;;;;;;5068703;28;20040;-49
2021/04/19 06:25:55;;;;;;;3.72;2.13;;;;;;;;;;5072252;28;20045;-51
2021/04/19 06:28:23;;;;;;;9.55;2.80;;;;;;;;;;5068757;28;20139;-49
2021/04/19 06:31:11;;;;;;;12.07;2.23;;;;;;;;;;5068486;28;20036;-48
2021/04/19 06:33:38;;;;;;;6.93;2.20;;;;;;;;;;5066668;28;20119;-47
2021/04/19 06:36:04;;;;;;;5.07;2.25;;;;;;;;;;5068741;28;20044;-50
2021/04/19 06:38:30;;;;;;;8.63;2.53;;;;;;;;;;5076186;28;20049;-48
2021/04/19 06:40:57;;;;;;;4.22;2.22;;;;;;;;;;5066536;28;20480;-48
2021/04/19 06:43:23;;;;;;;3.92;2.30;;;;;;;;;;5064556;28;20416;-47
2021/04/19 06:45:49;;;;;;;6.75;2.20;;;;;;;;;;5066718;28;20044;-49
2021/04/19 06:48:19;;;;;;;6.40;2.30;;;;;;;;;;5064613;28;20126;-48
2021/04/19 06:50:46;;;;;;;8.38;2.45;;;;;;;;;;5064663;28;20146;-48
2021/04/19 06:53:13;;;;;;;6.07;2.47;;;;;;;;;;5066835;28;20052;-51
2021/04/19 06:55:39;;;;;;;;;;;;;;;;;;5069574;28;20062;-50
2021/04/19 06:58:06;;;;;;;5.05;2.05;;;;;;;;;;5064792;28;19959;-50
2021/04/19 07:00:32;;;;;;;10.00;2.90;;;;;;;;;;5068789;28;20484;-48
2021/04/19 07:03:00;;;;;;;5.32;2.15;;;;;;;;;;5061423;28;20103;-51
2021/04/19 07:05:32;;;;;;;6.00;2.20;;;;;;;;;;5069562;28;20542;-49
2021/04/19 07:08:18;;;;;;;6.93;2.20;;;;;;;;;;5068081;28;20056;-48
2021/04/19 07:10:45;;;;;;;4.70;2.17;;;;;;;;;;5066170;28;20496;-49
2021/04/19 07:13:13;;;;;;;7.25;2.35;;;;;;;;;;5068135;28;20048;-50
2021/04/19 07:15:40;;;;;;;8.60;2.15;;;;;;;;;;5070329;28;20044;-49
2021/04/19 07:18:07;;;;;;;5.28;2.35;;;;;;;;;;5069472;28;20041;-51
2021/04/19 07:20:34;;;;;;;7.73;2.07;;;;;;;;;;5068572;28;20140;-48
2021/04/19 07:23:00;;;;;;;3.95;2.25;;;;;;;;;;5070213;28;20039;-50
2021/04/19 07:25:27;;;;;;;5.75;2.30;;;;;;;;;;5068090;28;20098;-48
2021/04/19 07:27:54;;;;;;;5.78;2.45;;;;;;;;;;5068721;28;20071;-47
2021/04/19 07:30:21;;;;;;;6.30;2.38;;;;;;;;;;5067814;28;20048;-50
2021/04/19 07:32:47;;;;;;;4.63;2.50;;;;;;;;;;5071415;28;20044;-49
2021/04/19 07:35:14;;;;;;;6.78;2.60;;;;;;;;;;5067749;28;20082;-47
2021/04/19 07:37:54;;;;;;;9.90;2.88;;;;;;;;;;5071224;28;20113;-51
2021/04/19 07:40:27;;;;;;;5.93;2.70;;;;;;;;;;5067075;28;20049;-48
2021/04/19 07:43:26;;;;;;;6.70;2.35;;;;;;;;;;5070069;28;20048;-50
2021/04/19 07:46:01;;;;;;;7.70;2.30;;;;;;;;;;5069701;28;20086;-52
2021/04/19 07:48:41;;;;;;;8.40;2.25;;;;;;;;;;5066170;28;20040;-48
2021/04/19 07:51:27;;;;;;;5.22;2.60;;;;;;;;;;5071436;28;20439;-49
2021/04/19 07:54:12;;;;;;;7.20;2.30;;;;;;;;;;5067909;28;20074;-48
2021/04/19 07:56:39;;;;;;;5.38;2.25;;;;;;;;;;5069828;28;20558;-50
2021/04/19 07:59:32;;;;;;;4.95;2.15;;;;;;;;;;5070889;28;20051;-47
2021/04/19 08:01:59;;;;;;;9.60;2.80;;;;;;;;;;5071811;28;20071;-49
2021/04/19 08:04:26;;;;;;;6.25;2.35;;;;;;;;;;5072774;28;20032;-49
2021/04/19 08:06:52;;;;;;;7.45;2.63;;;;;;;;;;5071614;28;20053;-49
2021/04/19 08:09:24;;;;;;;5.97;2.38;;;;;;;;;;5070578;28;20063;-49
2021/04/19 08:11:57;;;;;;;8.05;2.30;;;;;;;;;;5071408;28;20135;-48
2021/04/19 08:14:27;;;;;;;6.53;2.42;;;;;;;;;;5069986;28;20048;-50
2021/04/19 08:17:10;;;;;;;7.68;2.20;;;;;;;;;;5069562;28;20101;-49
2021/04/19 08:19:39;;;;;;;4.45;2.55;;;;;;;;;;5069890;28;20048;-49
2021/04/19 08:22:31;;;;;;;4.85;2.30;;;;;;;;;;5071597;28;20106;-48
2021/04/19 08:25:12;;;;;;;6.45;2.45;;;;;;;;;;5070263;28;20056;-52
2021/04/19 08:27:38;;;;;;;6.60;2.65;;;;;;;;;;5068171;28;20044;-49
2021/04/19 08:30:06;;;;;;;7.75;2.33;;;;;;;;;;5069574;28;20048;-50
2021/04/19 08:32:32;;;;;;;6.00;2.60;;;;;;;;;;5066199;28;20049;-49
2021/04/19 08:34:59;;;;;;;5.15;2.10;;;;;;;;;;5072101;28;20147;-48
2021/04/19 08:37:32;;;;;;;6.55;2.58;;;;;;;;;;5069192;28;20040;-48
2021/04/19 08:39:59;;;;;;;10.13;2.40;;;;;;;;;;5070771;28;20040;-50
2021/04/19 08:42:27;;;;;;;6.72;2.35;;;;;;;;;;5070751;28;20092;-49
2021/04/19 08:44:57;;;;;;;6.90;2.30;;;;;;;;;;5071426;28;20058;-49
2021/04/19 08:47:27;;;;;;;12.05;2.50;;;;;;;;;;5071484;28;20049;-49
2021/04/19 08:49:56;;;;;;;7.97;2.50;;;;;;;;;;5063954;28;20097;-48
2021/04/19 08:52:23;;;;;;;7.03;2.60;;;;;;;;;;5068558;28;20105;-50
2021/04/19 08:54:49;;;;;;;7.83;2.50;;;;;;;;;;5068847;28;20396;-50
2021/04/19 08:57:15;;;;;;;6.32;2.22;;;;;;;;;;5068670;28;20297;-50
2021/04/19 08:59:43;;;;;;;8.93;2.50;;;;;;;;;;5069210;28;20051;-49
2021/04/19 09:02:11;;;;;;;7.45;2.17;;;;;;;;;;5067082;28;20052;-49
2021/04/19 09:04:38;;;;;;;5.75;2.28;;;;;;;;;;5066576;28;20122;-49
2021/04/19 09:07:04;;;;;;;5.30;2.20;;;;;;;;;;5068551;28;20049;-49
2021/04/19 09:09:42;;;;;;;4.70;2.42;;;;;;;;;;5067581;28;20576;-50
2021/04/19 09:12:11;;;;;;;7.97;2.30;;;;;;;;;;5060998;28;20542;-48
2021/04/19 09:14:38;;;;;;;6.18;2.20;;;;;;;;;;5066718;28;20036;-49
2021/04/19 09:17:05;;;;;;;5.88;2.42;;;;;;;;;;5069355;28;20046;-51
2021/04/19 09:19:36;;;;;;;6.68;2.58;;;;;;;;;;5064718;28;20044;-49
2021/04/19 09:22:13;;;;;;;5.30;2.40;;;;;;;;;;5068985;28;20050;-49
2021/04/19 09:25:03;;;;;;;4.97;2.20;;;;;;;;;;5066672;28;20036;-48
2021/04/19 09:27:41;;;;;;;5.80;2.50;;;;;;;;;;5068868;28;20056;-48
2021/04/19 09:30:14;;;;;;;5.88;2.33;;;;;;;;;;5067254;28;20044;-49
2021/04/19 09:32:40;;;;;;;4.90;2.15;;;;;;;;;;5067155;28;20098;-52
2021/04/19 09:35:30;;;;;;;4.15;1.63;;;;;;;;;;5066650;28;20479;-53
2021/04/19 09:37:57;;;;;;;5.07;2.00;;;;;;;;;;5062933;28;20416;-51
2021/04/19 09:40:24;;;;;;;12.30;2.80;;;;;;;;;;5062157;28;20044;-50
2021/04/19 09:43:07;;;;;;;5.82;2.13;;;;;;;;;;5067321;28;20079;-49
2021/04/19 09:45:54;;;;;;;3.92;2.30;;;;;;;;;;5065511;28;20403;-48
2021/04/19 09:48:39;;;;;;;4.20;1.98;;;;;;;;;;5064536;28;20128;-53
2021/04/19 09:51:16;;;;;;;10.57;2.30;;;;;;;;;;5068957;28;20048;-52
2021/04/19 09:53:46;;;;;;;11.18;2.25;;;;;;;;;;5066526;28;20147;-48
2021/04/19 09:56:13;;;;;;;9.00;2.50;;;;;;;;;;5067641;28;20385;-49
2021/04/19 09:58:41;;;;;;;6.90;2.30;;;;;;;;;;5065583;28;20051;-49
2021/04/19 10:01:07;;;;;;;5.47;2.13;;;;;;;;;;5067802;28;20500;-49
2021/04/19 10:03:35;;;;;;;8.00;2.13;;;;;;;;;;5065640;28;20040;-50
2021/04/19 10:06:06;;;;;;;4.47;2.47;;;;;;;;;;5066947;28;20036;-52
2021/04/19 10:08:35;;;;;;;7.35;1.83;;;;;;;;;;5066813;28;20123;-49
2021/04/19 10:11:03;;;;;;;10.02;3.00;;;;;;;;;;5067977;28;20046;-50
2021/04/19 10:13:30;;;;;;;8.85;2.40;;;;;;;;;;5067617;28;20036;-50
2021/04/19 10:16:03;;;;;;;7.07;2.40;;;;;;;;;;5067949;28;20037;-50
2021/04/19 10:18:31;;;;;;;10.48;2.28;;;;;;;;;;5065252;28;20033;-51
2021/04/19 10:20:57;;;;;;;7.55;2.25;;;;;;;;;;5063990;28;20040;-50
2021/04/19 10:23:30;;;;;;;6.22;2.47;;;;;;;;;;5066945;28;20048;-51
2021/04/19 10:25:57;;;;;;;4.65;2.17;;;;;;;;;;5063172;28;20160;-50
2021/04/19 10:28:31;;;;;;;9.35;2.20;;;;;;;;;;5065882;28;20069;-51
2021/04/19 10:31:12;;;;;;;3.50;1.88;;;;;;;;;;5067333;28;20102;-49
2021/04/19 10:33:39;;;;;;;4.47;2.00;;;;;;;;;;5068731;28;20110;-49
2021/04/19 10:36:13;;;;;;;2.78;1.80;;;;;;;;;;5066780;28;20098;-52
2021/04/19 10:38:40;;;;;;;3.70;1.92;;;;;;;;;;5066719;28;20119;-53
2021/04/19 10:41:06;;;;;;;7.40;2.35;;;;;;;;;;5065169;28;20097;-50
2021/04/19 10:43:33;;;;;;;8.52;2.10;;;;;;;;;;5065188;28;20049;-50
2021/04/19 10:46:00;;;;;;;5.10;1.98;;;;;;;;;;5064792;28;20090;-49
2021/04/19 10:48:27;;;;;;;8.43;2.00;;;;;;;;;;5066289;28;20500;-51
2021/04/19 10:50:56;;;;;;;4.38;1.55;;;;;;;;;;5071296;28;20043;-50
2021/04/19 10:53:32;;;;;;;8.43;2.45;;;;;;;;;;5070099;28;20132;-50
2021/04/19 10:55:59;;;;;;;5.40;2.33;;;;;;;;;;5069618;28;20496;-49
2021/04/19 10:58:27;;;;;;;9.25;2.55;;;;;;;;;;5071016;28;20086;-51
2021/04/19 11:00:53;;;;;;;5.97;1.83;;;;;;;;;;5071776;28;20484;-49
2021/04/19 11:03:20;;;;;;;7.50;2.10;;;;;;;;;;5070806;28;20102;-50
2021/04/19 11:05:46;;;;;;;6.50;2.20;;;;;;;;;;5069948;28;20534;-51
2021/04/19 11:08:12;;;;;;;8.95;2.33;;;;;;;;;;5070410;28;20634;-51
2021/04/19 11:10:41;;;;;;;6.60;2.22;;;;;;;;;;5066082;28;20099;-50
2021/04/19 11:13:08;;;;;;;3.90;2.33;;;;;;;;;;5065826;28;20050;-49
2021/04/19 11:15:35;;;;;;;;;;;;;;;;;;5068932;28;20488;-51
2021/04/19 11:18:19;;;;;;;5.22;1.98;;;;;;;;;;5069562;28;19920;-49
2021/04/19 11:20:46;;;;;;;7.43;2.55;;;;;;;;;;5071549;28;20055;-50
2021/04/19 11:23:28;;;;;;;7.90;2.10;;;;;;;;;;5070846;28;20109;-49
2021/04/19 11:25:56;;;;;;;6.93;2.30;;;;;;;;;;5068790;28;20044;-51
2021/04/19 11:28:30;;;;;;;4.10;2.03;;;;;;;;;;5066424;28;20040;-51
2021/04/19 11:30:57;;;;;;;6.70;2.45;;;;;;;;;;5071427;28;20090;-51
2021/04/19 11:33:25;;;;;;;11.55;2.30;;;;;;;;;;5070690;28;20052;-51
2021/04/19 11:36:00;;;;;;;6.78;2.35;;;;;;;;;;5069699;28;20094;-48
2021/04/19 11:38:26;;;;;;;7.20;1.90;;;;;;;;;;5071655;28;20049;-47
2021/04/19 11:41:02;;;;;;;4.78;1.90;;;;;;;;;;5068884;28;20041;-48
2021/04/19 11:43:30;;;;;;;6.32;2.38;;;;;;;;;;5069836;28;20036;-51
2021/04/19 11:45:56;;;;;;;4.90;1.70;;;;;;;;;;5070013;28;20094;-49
2021/04/19 11:48:23;;;;;;;5.80;1.90;;;;;;;;;;5069466;28;20033;-48
2021/04/19 11:50:49;;;;;;;5.15;2.30;;;;;;;;;;5069660;28;20111;-48
2021/04/19 11:53:25;;;;;;;5.82;1.88;;;;;;;;;;5071288;28;20089;-46
2021/04/19 11:55:52;;;;;;;4.97;2.00;;;;;;;;;;5067444;28;20549;-47
2021/04/19 11:58:35;;;;;;;4.05;2.05;;;;;;;;;;5069587;28;20052;-48
2021/04/19 12:01:02;;;;;;;8.43;2.35;;;;;;;;;;5069508;28;20051;-47
2021/04/19 12:03:34;;;;;;;7.43;2.22;;;;;;;;;;5067592;28;20111;-49
2021/04/19 12:06:02;;;;;;;7.57;2.15;;;;;;;;;;5069582;28;20052;-48
2021/04/19 12:08:30;;;;;;;6.75;2.50;;;;;;;;;;5070684;28;20112;-50
2021/04/19 12:10:57;;;;;;;5.53;2.28;;;;;;;;;;5069107;28;20094;-48
2021/04/19 12:13:23;;;;;;;3.28;2.22;;;;;;;;;;5067596;28;20072;-50
2021/04/19 12:15:52;;;;;;;6.20;2.20;;;;;;;;;;5065968;28;20040;-50
2021/04/19 12:18:18;;;;;;;6.63;2.28;;;;;;;;;;5068493;28;20039;-48
2021/04/19 12:20:45;;;;;;;8.35;2.10;;;;;;;;;;5066375;28;20044;-49
2021/04/19 12:23:12;;;;;;;6.45;2.15;;;;;;;;;;5069464;28;20051;-49
2021/04/19 12:25:38;;;;;;;7.07;2.38;;;;;;;;;;5070081;28;20123;-49
2021/04/19 12:28:04;;;;;;;4.93;2.00;;;;;;;;;;5070355;28;20040;-49
2021/04/19 12:30:31;;;;;;;7.07;2.00;;;;;;;;;;5069200;28;20558;-50
2021/04/19 12:32:58;;;;;;;9.95;2.05;;;;;;;;;;5070057;28;20312;-50
2021/04/19 12:35:25;;;;;;;8.95;2.30;;;;;;;;;;5069547;28;20045;-49
2021/04/19 12:37:52;;;;;;;9.98;2.42;;;;;;;;;;5067042;28;20484;-47
2021/04/19 12:40:19;;;;;;;7.43;2.22;;;;;;;;;;5068055;28;20036;-52
2021/04/19 12:42:47;;;;;;;6.05;2.25;;;;;;;;;;5065025;28;20119;-48
2021/04/19 12:45:14;;;;;;;7.63;2.58;;;;;;;;;;5068838;28;20067;-49
2021/04/19 12:47:40;;;;;;;9.38;2.30;;;;;;;;;;5069561;28;20048;-50
2021/04/19 12:50:06;;;;;;;4.25;1.63;;;;;;;;;;5067701;28;20558;-53
2021/04/19 12:52:33;;;;;;;6.65;2.30;;;;;;;;;;5069903;28;20068;-47
2021/04/19 12:55:18;;;;;;;8.82;2.00;;;;;;;;;;5067903;28;20092;-50
2021/04/19 12:57:44;;;;;;;6.38;2.03;;;;;;;;;;5068365;28;20480;-52
2021/04/19 13:00:11;;;;;;;9.00;2.00;;;;;;;;;;5069746;28;20064;-50
2021/04/19 13:02:37;;;;;;;8.95;2.25;;;;;;;;;;5068699;28;20041;-52
2021/04/19 13:05:04;;;;;;;11.90;2.10;;;;;;;;;;5068610;28;20048;-48
2021/04/19 13:07:30;;;;;;;7.97;2.20;;;;;;;;;;5066933;28;20109;-52
2021/04/19 13:09:56;;;;;;;7.15;2.78;;;;;;;;;;5069694;28;20041;-50
2021/04/19 13:12:23;;;;;;;8.35;2.00;;;;;;;;;;5067832;28;20087;-48
2021/04/19 13:14:49;;;;;;;9.02;1.80;;;;;;;;;;5066772;28;20047;-51
2021/04/19 13:17:16;;;;;;;8.00;1.85;;;;;;;;;;5066496;28;20505;-48
2021/04/19 13:19:47;;;;;;;6.28;1.55;;;;;;;;;;5066893;28;20399;-50
2021/04/19 13:22:13;;;;;;;8.65;2.03;;;;;;;;;;5069620;28;20040;-48
2021/04/19 13:24:39;;;;;;;7.78;2.47;;;;;;;;;;5068771;28;20050;-48
2021/04/19 13:27:06;;;;;;;4.00;1.93;;;;;;;;;;5068680;28;20071;-51
2021/04/19 13:29:32;;;;;;;5.82;1.88;;;;;;;;;;5064492;28;20642;-50
2021/04/19 13:31:58;;;;;;;15.88;2.28;;;;;;;;;;5067208;28;20200;-48
2021/04/19 13:34:25;;;;;;;7.23;1.80;;;;;;;;;;5067687;28;20036;-48
2021/04/19 13:36:51;;;;;;;8.60;1.90;;;;;;;;;;5067510;28;20051;-47
2021/04/19 13:39:17;;;;;;;4.68;1.75;;;;;;;;;;5067078;28;20492;-52
2021/04/19 13:41:43;;;;;;;10.95;2.08;;;;;;;;;;5067366;28;20032;-49
2021/04/19 13:44:09;;;;;;;6.10;2.15;;;;;;;;;;5065414;28;20059;-49
2021/04/19 13:46:35;;;;;;;5.05;2.10;;;;;;;;;;5067137;28;20510;-48
2021/04/19 13:49:03;;;;;;;6.75;1.85;;;;;;;;;;5067971;28;20143;-49
2021/04/19 13:51:30;;;;;;;3.78;1.40;;;;;;;;;;5066380;28;20064;-49
2021/04/19 13:53:57;;;;;;;8.93;1.70;;;;;;;;;;5067420;28;20060;-49
2021/04/19 13:56:24;;;;;;;8.95;1.80;;;;;;;;;;5068433;28;20417;-50
2021/04/19 13:58:50;;;;;;;8.93;2.13;;;;;;;;;;5065522;28;20571;-48
2021/04/19 14:01:16;;;;;;;4.60;2.00;;;;;;;;;;5066252;28;20147;-51
2021/04/19 14:03:43;;;;;;;6.40;2.17;;;;;;;;;;5066486;28;20040;-49
2021/04/19 14:06:09;;;;;;;5.72;1.60;;;;;;;;;;5066412;28;20646;-51
2021/04/19 14:08:35;;;;;;;7.60;2.00;;;;;;;;;;5066237;28;20086;-49
2021/04/19 14:11:03;;;;;;;4.85;1.95;;;;;;;;;;5067655;28;20450;-49
2021/04/19 14:13:30;;;;;;;6.60;2.30;;;;;;;;;;5064700;28;20052;-48
2021/04/19 14:15:57;;;;;;;5.20;1.90;;;;;;;;;;5067621;28;20567;-52
2021/04/19 14:18:24;;;;;;;5.32;2.03;;;;;;;;;;5067112;28;20028;-48
2021/04/19 14:20:50;;;;;;;5.75;1.98;;;;;;;;;;5067463;28;20083;-48
2021/04/19 14:23:18;;;;;;;5.18;1.83;;;;;;;;;;5065768;28;20190;-49
2021/04/19 14:25:44;;;;;;;7.10;1.92;;;;;;;;;;5070990;28;20028;-52
2021/04/19 14:28:10;;;;;;;7.70;2.00;;;;;;;;;;5072490;28;20131;-47
2021/04/19 14:30:36;;;;;;;5.45;1.90;;;;;;;;;;5071415;28;20071;-48
2021/04/19 14:33:02;;;;;;;7.68;1.98;;;;;;;;;;5069940;28;20041;-52
2021/04/19 14:35:29;;;;;;;11.43;2.25;;;;;;;;;;5071413;28;20036;-48
2021/04/19 14:37:55;;;;;;;10.15;2.40;;;;;;;;;;5071259;28;20045;-52
2021/04/19 14:40:21;;;;;;;9.68;2.50;;;;;;;;;;5071970;28;20036;-48
2021/04/19 14:42:47;;;;;;;8.00;2.10;;;;;;;;;;5070988;28;20044;-50
2021/04/19 14:45:14;;;;;;;8.02;1.92;;;;;;;;;;5067225;28;20381;-51
2021/04/19 14:47:43;;;;;;;7.97;2.13;;;;;;;;;;5070363;28;20470;-50
2021/04/19 14:50:10;;;;;;;5.05;2.08;;;;;;;;;;5071129;28;20037;-48
2021/04/19 14:52:37;;;;;;;11.23;2.00;;;;;;;;;;5071337;28;20051;-51
2021/04/19 14:55:06;;;;;;;14.52;2.10;;;;;;;;;;5071264;28;20044;-48
2021/04/19 14:57:32;;;;;;;8.75;2.60;;;;;;;;;;5069591;28;20045;-48
2021/04/19 14:59:58;;;;;;;7.75;2.15;;;;;;;;;;5067392;28;20045;-49